createdAt,value
2019-01-21T00:01:50.417Z,25.83
2019-01-21T00:04:19.211Z,27.20
2019-01-21T00:06:48.109Z,27.03
2019-01-21T00:09:16.991Z,25.70
2019-01-21T00:11:45.882Z,25.37
2019-01-21T00:14:14.765Z,24.53
2019-01-21T00:16:43.668Z,22.77
2019-01-21T00:19:13.717Z,17.80
2019-01-21T00:21:42.681Z,26.00
2019-01-21T00:24:11.490Z,28.10
2019-01-21T00:26:40.375Z,27.33
2019-01-21T00:29:09.319Z,26.97
2019-01-21T00:31:38.195Z,25.70
2019-01-21T00:34:06.981Z,23.07
2019-01-21T00:36:35.787Z,23.70
2019-01-21T00:39:07.187Z,27.95
2019-01-21T00:41:36.057Z,29.17
2019-01-21T00:44:05.009Z,24.63
2019-01-21T00:46:33.867Z,28.10
2019-01-21T00:49:02.623Z,23.77
2019-01-21T00:51:31.443Z,27.00
2019-01-21T00:54:00.332Z,26.43
2019-01-21T00:56:29.143Z,23.92
2019-01-21T00:58:58.009Z,21.10
2019-01-21T01:01:27.057Z,28.10
2019-01-21T01:03:55.993Z,24.80
2019-01-21T01:06:24.888Z,23.45
2019-01-21T01:08:53.844Z,25.95
2019-01-21T01:11:22.802Z,23.90
2019-01-21T01:13:51.615Z,25.40
2019-01-21T01:16:20.487Z,23.90
2019-01-21T01:18:49.287Z,23.60
2019-01-21T01:21:18.092Z,23.02
2019-01-21T01:23:46.967Z,27.13
2019-01-21T01:26:15.909Z,23.52
2019-01-21T01:28:44.714Z,24.97
2019-01-21T01:31:13.580Z,23.90
2019-01-21T01:33:42.377Z,25.30
2019-01-21T01:36:11.317Z,21.83
2019-01-21T01:38:40.216Z,24.10
2019-01-21T01:41:09.109Z,22.83
2019-01-21T01:43:37.996Z,25.95
2019-01-21T01:46:06.868Z,19.73
2019-01-21T01:48:35.824Z,22.90
2019-01-21T01:51:04.856Z,20.37
2019-01-21T01:53:34.781Z,21.17
2019-01-21T01:56:04.126Z,26.47
2019-01-21T01:58:33.005Z,24.07
2019-01-21T02:01:01.880Z,25.40
2019-01-21T02:03:30.668Z,23.18
2019-01-21T02:05:59.946Z,21.40
2019-01-21T02:08:29.014Z,19.40
2019-01-21T02:10:57.956Z,19.17
2019-01-21T02:13:26.848Z,19.07
2019-01-21T02:15:56.443Z,24.50
2019-01-21T02:18:26.507Z,26.00
2019-01-21T02:20:58.408Z,23.35
2019-01-21T02:23:31.753Z,24.40
2019-01-21T02:26:02.458Z,19.48
2019-01-21T02:29:01.730Z,23.83
2019-01-21T02:32:17.790Z,23.07
2019-01-21T02:35:14.990Z,23.47
2019-01-21T02:38:17.101Z,24.47
2019-01-21T02:41:01.833Z,19.63
2019-01-21T02:43:56.330Z,23.33
2019-01-21T02:46:58.116Z,21.63
2019-01-21T02:50:07.283Z,17.75
2019-01-21T02:53:17.963Z,19.27
2019-01-21T02:56:02.725Z,19.23
2019-01-21T02:59:06.989Z,23.30
2019-01-21T03:02:05.848Z,20.60
2019-01-21T03:05:00.881Z,20.40
2019-01-21T03:07:39.390Z,23.07
2019-01-21T03:10:25.931Z,22.47
2019-01-21T03:13:38.016Z,20.70
2019-01-21T03:16:27.964Z,22.27
2019-01-21T03:19:30.215Z,17.83
2019-01-21T03:22:34.910Z,20.63
2019-01-21T03:25:35.779Z,21.26
2019-01-21T03:28:31.297Z,21.27
2019-01-21T03:31:44.127Z,15.38
2019-01-21T03:34:45.875Z,22.53
2019-01-21T03:38:03.886Z,19.83
2019-01-21T03:40:58.043Z,16.73
2019-01-21T03:43:49.452Z,16.90
2019-01-21T03:46:50.600Z,19.10
2019-01-21T03:49:35.845Z,19.53
2019-01-21T03:52:38.521Z,22.00
2019-01-21T03:55:11.696Z,18.57
2019-01-21T03:58:24.669Z,21.90
2019-01-21T04:01:12.699Z,19.77
2019-01-21T04:04:33.752Z,16.13
2019-01-21T04:07:16.342Z,19.37
2019-01-21T04:10:31.653Z,18.10
2019-01-21T04:13:16.714Z,17.87
2019-01-21T04:16:11.223Z,19.70
2019-01-21T04:19:06.464Z,20.10
2019-01-21T04:21:47.650Z,19.80
2019-01-21T04:24:55.634Z,21.43
2019-01-21T04:28:01.231Z,21.10
2019-01-21T04:31:26.508Z,22.10
2019-01-21T04:34:32.384Z,26.25
2019-01-21T04:37:41.285Z,22.05
2019-01-21T04:40:51.960Z,19.00
2019-01-21T04:43:55.021Z,23.75
2019-01-21T04:46:35.450Z,22.75
2019-01-21T04:49:46.346Z,25.47
2019-01-21T04:53:11.656Z,19.67
2019-01-21T04:56:32.491Z,22.20
2019-01-21T04:59:32.901Z,23.53
2019-01-21T05:02:27.504Z,21.60
2019-01-21T05:05:39.708Z,25.20
2019-01-21T05:08:36.659Z,22.80
2019-01-21T05:11:38.928Z,22.40
2019-01-21T05:14:33.194Z,22.77
2019-01-21T05:17:35.090Z,25.07
2019-01-21T05:20:28.248Z,25.70
2019-01-21T05:23:36.589Z,22.83
2019-01-21T05:26:44.930Z,22.80
2019-01-21T05:29:44.850Z,19.43
2019-01-21T05:32:49.979Z,26.00
2019-01-21T05:35:44.511Z,18.85
2019-01-21T05:38:46.608Z,21.63
2019-01-21T05:41:47.521Z,19.93
2019-01-21T05:44:42.036Z,22.07
2019-01-21T05:48:06.771Z,23.60
2019-01-21T05:51:04.661Z,25.80
2019-01-21T05:53:57.087Z,20.20
2019-01-21T05:57:00.141Z,21.50
2019-01-21T06:00:01.550Z,23.60
2019-01-21T06:03:02.607Z,17.70
2019-01-21T06:05:44.848Z,21.10
2019-01-21T06:09:07.648Z,20.47
2019-01-21T06:11:49.839Z,21.40
2019-01-21T06:15:05.723Z,22.60
2019-01-21T06:18:10.672Z,20.70
2019-01-21T06:21:13.503Z,22.97
2019-01-21T06:24:13.151Z,21.27
2019-01-21T06:27:05.701Z,19.57
2019-01-21T06:30:03.700Z,23.23
2019-01-21T06:33:04.753Z,21.57
2019-01-21T06:35:53.613Z,21.90
2019-01-21T06:39:13.037Z,23.15
2019-01-21T06:42:15.382Z,20.80
2019-01-21T06:45:28.419Z,24.23
2019-01-21T06:48:20.237Z,21.30
2019-01-21T06:51:09.390Z,25.65
2019-01-21T06:54:13.782Z,18.87
2019-01-21T06:57:05.787Z,26.83
2019-01-21T07:00:06.369Z,21.17
2019-01-21T07:03:05.177Z,20.00
2019-01-21T07:05:49.211Z,22.90
2019-01-21T07:09:02.456Z,25.50
2019-01-21T07:11:53.904Z,20.00
2019-01-21T07:15:09.707Z,20.17
2019-01-21T07:18:26.037Z,18.20
2019-01-21T07:21:18.905Z,20.70
2019-01-21T07:24:21.006Z,23.90
2019-01-21T07:27:15.993Z,21.57
2019-01-21T07:30:07.903Z,22.30
2019-01-21T07:32:59.085Z,27.83
2019-01-21T07:36:14.115Z,25.47
2019-01-21T07:39:10.162Z,24.97
2019-01-21T07:42:04.208Z,29.32
2019-01-21T07:45:15.061Z,21.70
2019-01-21T07:48:03.133Z,22.62
2019-01-21T07:51:19.277Z,23.60
2019-01-21T07:54:16.146Z,23.60
2019-01-21T07:57:38.045Z,22.03
2019-01-21T08:00:58.467Z,22.87
2019-01-21T08:04:03.409Z,21.20
2019-01-21T08:06:39.708Z,26.63
2019-01-21T08:09:48.694Z,29.00
2019-01-21T08:13:10.347Z,24.53
2019-01-21T08:16:04.464Z,23.93
2019-01-21T08:19:25.883Z,25.40
2019-01-21T08:22:24.127Z,23.37
2019-01-21T08:25:37.360Z,26.68
2019-01-21T08:28:29.058Z,23.70
2019-01-21T08:31:32.496Z,23.30
2019-01-21T08:34:36.656Z,23.20
2019-01-21T08:37:35.552Z,27.80
2019-01-21T08:40:16.619Z,27.67
2019-01-21T08:43:42.134Z,24.92
2019-01-21T08:46:26.166Z,22.75
2019-01-21T08:49:22.108Z,20.03
2019-01-21T08:52:26.021Z,25.23
2019-01-21T08:55:19.940Z,21.50
2019-01-21T08:58:26.929Z,20.90
2019-01-21T09:01:27.172Z,22.70
2019-01-21T09:04:37.840Z,21.55
2019-01-21T09:07:47.928Z,20.30
2019-01-21T09:10:53.891Z,20.50
2019-01-21T09:13:50.643Z,22.80
2019-01-21T09:16:48.552Z,23.00
2019-01-21T09:20:10.790Z,21.37
2019-01-21T09:22:51.483Z,16.03
2019-01-21T09:25:40.653Z,17.67
2019-01-21T09:28:46.227Z,19.65
2019-01-21T09:32:06.300Z,17.00
2019-01-21T09:35:17.260Z,18.60
2019-01-21T09:38:20.838Z,21.70
2019-01-21T09:41:34.510Z,18.10
2019-01-21T09:44:20.907Z,18.53
2019-01-21T09:46:49.068Z,19.27
2019-01-21T09:49:16.440Z,19.70
2019-01-21T09:52:08.420Z,19.65
2019-01-21T09:54:39.163Z,16.97
2019-01-21T09:57:09.737Z,17.50
2019-01-21T09:59:38.696Z,20.27
2019-01-21T10:02:08.839Z,20.63
2019-01-21T10:04:51.320Z,18.27
2019-01-21T10:07:33.142Z,18.00
2019-01-21T10:10:11.481Z,18.03
2019-01-21T10:13:06.893Z,20.00
2019-01-21T10:15:58.157Z,18.93
2019-01-21T10:19:04.915Z,16.60
2019-01-21T10:21:58.009Z,17.70
2019-01-21T10:24:44.020Z,16.60
2019-01-21T10:28:02.273Z,16.40
2019-01-21T10:31:01.367Z,16.30
2019-01-21T10:34:15.669Z,18.77
2019-01-21T10:37:34.597Z,20.87
2019-01-21T10:40:26.804Z,15.32
2019-01-21T10:43:39.495Z,17.90
2019-01-21T10:46:17.964Z,15.00
2019-01-21T10:49:40.210Z,20.55
2019-01-21T10:52:23.291Z,17.17
2019-01-21T10:55:29.821Z,15.83
2019-01-21T10:58:24.018Z,16.10
2019-01-21T11:01:39.346Z,17.03
2019-01-21T11:04:31.187Z,18.50
2019-01-21T11:07:40.065Z,18.47
2019-01-21T11:10:35.199Z,15.63
2019-01-21T11:13:32.532Z,15.07
2019-01-21T11:16:15.252Z,19.73
2019-01-21T11:19:11.472Z,18.50
2019-01-21T11:21:54.535Z,16.33
2019-01-21T11:24:47.589Z,14.83
2019-01-21T11:27:37.208Z,16.70
2019-01-21T11:30:59.206Z,16.03
2019-01-21T11:34:14.035Z,17.73
2019-01-21T11:37:36.088Z,18.00
2019-01-21T11:40:30.350Z,18.77
2019-01-21T11:43:39.344Z,15.13
2019-01-21T11:46:44.569Z,17.83
2019-01-21T11:49:42.580Z,16.00
2019-01-21T11:52:21.311Z,16.57
2019-01-21T11:55:36.421Z,17.00
2019-01-21T11:58:29.774Z,17.10
2019-01-21T12:01:34.884Z,19.83
2019-01-21T12:04:13.951Z,19.63
2019-01-21T12:07:35.095Z,16.27
2019-01-21T12:10:52.890Z,16.97
2019-01-21T12:14:09.638Z,17.23
2019-01-21T12:17:18.578Z,17.10
2019-01-21T12:20:16.871Z,15.05
2019-01-21T12:23:21.739Z,16.27
2019-01-21T12:26:04.586Z,17.05
2019-01-21T12:29:09.708Z,15.00
2019-01-21T12:32:01.742Z,17.87
2019-01-21T12:34:46.674Z,15.03
2019-01-21T12:37:41.689Z,17.87
2019-01-21T12:40:52.414Z,21.03
2019-01-21T12:43:44.716Z,13.43
2019-01-21T12:46:37.518Z,14.80
2019-01-21T12:49:59.688Z,17.20
2019-01-21T12:52:53.808Z,17.40
2019-01-21T12:55:39.953Z,16.70
2019-01-21T12:58:25.165Z,15.10
2019-01-21T13:01:20.863Z,17.97
2019-01-21T13:04:26.670Z,17.27
2019-01-21T13:07:34.965Z,17.47
2019-01-21T13:10:32.875Z,18.43
2019-01-21T13:13:43.323Z,15.00
2019-01-21T13:16:40.340Z,15.98
2019-01-21T13:19:53.396Z,16.33
2019-01-21T13:23:06.507Z,21.27
2019-01-21T13:26:25.401Z,15.90
2019-01-21T13:29:38.713Z,15.27
2019-01-21T13:32:49.767Z,19.30
2019-01-21T13:35:43.278Z,16.63
2019-01-21T13:39:14.467Z,15.63
2019-01-21T13:42:01.031Z,18.23
2019-01-21T13:44:43.406Z,15.20
2019-01-21T13:47:50.567Z,17.57
2019-01-21T13:50:56.583Z,18.45
2019-01-21T13:54:12.294Z,18.00
2019-01-21T13:57:07.089Z,17.80
2019-01-21T14:00:05.150Z,19.80
2019-01-21T14:02:42.576Z,17.00
2019-01-21T14:05:45.615Z,16.13
2019-01-21T14:08:22.805Z,16.97
2019-01-21T14:11:16.387Z,17.20
2019-01-21T14:14:16.823Z,17.80
2019-01-21T14:17:11.440Z,14.83
2019-01-21T14:20:16.940Z,17.13
2019-01-21T14:22:59.109Z,14.70
2019-01-21T14:25:52.044Z,19.10
2019-01-21T14:28:54.023Z,17.55
2019-01-21T14:32:02.830Z,15.63
2019-01-21T14:34:47.751Z,14.93
2019-01-21T14:37:47.598Z,18.60
2019-01-21T14:40:42.855Z,15.43
2019-01-21T14:43:58.051Z,15.90
2019-01-21T14:47:08.432Z,17.73
2019-01-21T14:49:50.542Z,15.43
2019-01-21T14:52:55.851Z,13.97
2019-01-21T14:55:58.923Z,18.23
2019-01-21T14:58:44.343Z,15.58
2019-01-21T15:01:41.531Z,16.90
2019-01-21T15:04:56.460Z,19.30
2019-01-21T15:07:40.922Z,17.60
2019-01-21T15:10:32.877Z,15.30
2019-01-21T15:13:28.849Z,19.13
2019-01-21T15:16:29.407Z,17.50
2019-01-21T15:19:19.752Z,15.93
2019-01-21T15:22:38.787Z,19.45
2019-01-21T15:25:26.032Z,19.65
2019-01-21T15:28:23.264Z,19.30
2019-01-21T15:31:13.501Z,20.77
2019-01-21T15:34:05.611Z,18.67
2019-01-21T15:37:09.158Z,18.60
2019-01-21T15:39:55.603Z,16.27
2019-01-21T15:42:46.359Z,19.42
2019-01-21T15:45:51.782Z,17.27
2019-01-21T15:48:46.451Z,19.70
2019-01-21T15:51:50.836Z,20.40
2019-01-21T15:55:06.404Z,20.83
2019-01-21T15:58:05.222Z,17.93
2019-01-21T16:01:02.494Z,16.65
2019-01-21T16:03:51.388Z,17.80
2019-01-21T16:06:48.448Z,21.70
2019-01-21T16:10:16.009Z,18.35
2019-01-21T16:13:03.315Z,20.50
2019-01-21T16:16:14.580Z,18.17
2019-01-21T16:18:55.031Z,18.80
2019-01-21T16:22:22.312Z,21.27
2019-01-21T16:25:41.601Z,19.67
2019-01-21T16:29:07.981Z,18.83
2019-01-21T16:32:06.258Z,19.50
2019-01-21T16:35:18.898Z,22.93
2019-01-21T16:38:32.159Z,22.80
2019-01-21T16:41:36.970Z,20.50
2019-01-21T16:44:05.931Z,18.50
2019-01-21T16:46:34.747Z,20.32
2019-01-21T16:49:03.611Z,22.60
2019-01-21T16:51:32.480Z,16.60
2019-01-21T16:54:01.458Z,20.73
2019-01-21T16:56:30.243Z,19.98
2019-01-21T16:58:59.106Z,20.90
2019-01-21T17:01:28.053Z,19.77
2019-01-21T17:03:57.671Z,20.57
2019-01-21T17:06:26.561Z,22.40
2019-01-21T17:08:55.422Z,20.00
2019-01-21T17:11:24.324Z,20.90
2019-01-21T17:13:53.183Z,21.70
2019-01-21T17:16:22.094Z,19.98
2019-01-21T17:18:50.978Z,18.57
2019-01-21T17:21:19.919Z,16.23
2019-01-21T17:23:48.722Z,18.60
2019-01-21T17:26:17.663Z,21.37
2019-01-21T17:28:46.459Z,19.98
2019-01-21T17:31:15.331Z,17.53
2019-01-21T17:33:44.119Z,20.07
2019-01-21T17:36:13.072Z,18.47
2019-01-21T17:38:41.932Z,18.13
2019-01-21T17:41:10.809Z,17.23
2019-01-21T17:43:39.596Z,18.60
2019-01-21T17:46:08.483Z,24.63
2019-01-21T17:48:37.358Z,32.57
2019-01-21T17:51:06.339Z,27.27
2019-01-21T17:53:35.140Z,24.67
2019-01-21T17:56:04.357Z,27.43
2019-01-21T17:58:33.272Z,23.00
2019-01-21T18:01:02.219Z,23.90
2019-01-21T18:03:30.999Z,25.87
2019-01-21T18:06:00.263Z,26.77
2019-01-21T18:08:29.058Z,24.27
2019-01-21T18:10:57.910Z,24.67
2019-01-21T18:13:26.737Z,23.70
2019-01-21T18:15:55.546Z,28.85
2019-01-21T18:18:24.411Z,27.17
2019-01-21T18:20:53.214Z,25.30
2019-01-21T18:23:22.148Z,25.00
2019-01-21T18:25:51.033Z,26.17
2019-01-21T18:28:19.900Z,26.13
2019-01-21T18:30:48.791Z,23.93
2019-01-21T18:33:17.724Z,22.07
2019-01-21T18:35:46.592Z,25.30
2019-01-21T18:38:15.570Z,25.02
2019-01-21T18:40:44.394Z,23.87
2019-01-21T18:43:13.285Z,24.30
2019-01-21T18:45:42.579Z,20.70
2019-01-21T18:48:11.552Z,23.50
2019-01-21T18:50:40.618Z,23.40
2019-01-21T18:53:09.479Z,22.53
2019-01-21T18:55:38.440Z,23.20
2019-01-21T18:58:07.312Z,24.00
2019-01-21T19:00:36.196Z,27.03
2019-01-21T19:03:05.703Z,27.30
2019-01-21T19:05:34.510Z,26.47
2019-01-21T19:08:03.490Z,29.20
2019-01-21T19:10:32.764Z,24.12
2019-01-21T19:13:03.014Z,32.17
2019-01-21T19:15:33.523Z,30.23
2019-01-21T19:18:03.846Z,25.48
2019-01-21T19:20:33.247Z,27.82
2019-01-21T19:23:02.185Z,26.20
2019-01-21T19:25:31.020Z,29.00
2019-01-21T19:27:59.935Z,24.70
2019-01-21T19:30:29.214Z,26.23
2019-01-21T19:32:58.157Z,26.67
2019-01-21T19:35:29.891Z,29.70
2019-01-21T19:37:58.775Z,26.17
2019-01-21T19:40:27.748Z,27.90
2019-01-21T19:42:56.685Z,28.20
2019-01-21T19:45:25.562Z,26.27
2019-01-21T19:47:54.458Z,24.27
2019-01-21T19:50:23.933Z,27.90
2019-01-21T19:52:52.881Z,25.13
2019-01-21T19:55:27.460Z,27.37
2019-01-21T19:57:56.337Z,27.40
2019-01-21T20:00:25.583Z,28.80
2019-01-21T20:02:54.639Z,23.70
2019-01-21T20:05:23.568Z,30.40
2019-01-21T20:07:52.472Z,32.27
2019-01-21T20:10:21.554Z,30.47
2019-01-21T20:12:50.509Z,32.13
2019-01-21T20:15:19.557Z,28.70
2019-01-21T20:17:48.511Z,27.90
2019-01-21T20:20:23.136Z,28.37
2019-01-21T20:22:57.453Z,27.60
2019-01-21T20:25:22.739Z,23.95
2019-01-21T20:27:51.546Z,27.37
2019-01-21T20:30:21.105Z,31.33
2019-01-21T20:32:49.973Z,29.67
2019-01-21T20:35:19.062Z,29.13
2019-01-21T20:37:48.015Z,28.90
2019-01-21T20:40:19.885Z,28.60
2019-01-21T20:42:48.765Z,21.77
2019-01-21T20:45:18.056Z,28.57
2019-01-21T20:47:46.915Z,24.27
2019-01-21T20:50:20.924Z,26.68
2019-01-21T20:52:49.822Z,27.43
2019-01-21T20:55:19.250Z,24.83
2019-01-21T20:57:48.292Z,27.30
2019-01-21T21:00:22.270Z,28.90
2019-01-21T21:02:51.497Z,33.30
2019-01-21T21:05:20.641Z,30.20
2019-01-21T21:07:49.448Z,26.63
2019-01-21T21:10:18.505Z,31.20
2019-01-21T21:12:47.458Z,30.87
2019-01-21T21:15:25.768Z,27.47
2019-01-21T21:17:54.646Z,32.70
2019-01-21T21:20:23.517Z,31.60
2019-01-21T21:22:52.464Z,29.33
2019-01-21T21:25:21.812Z,29.75
2019-01-21T21:27:50.599Z,28.83
2019-01-21T21:30:22.214Z,31.27
2019-01-21T21:32:51.079Z,24.20
2019-01-21T21:35:20.328Z,28.87
2019-01-21T21:37:49.192Z,28.53
2019-01-21T21:40:19.252Z,25.73
2019-01-21T21:42:48.199Z,28.92
2019-01-21T21:45:17.884Z,25.47
2019-01-21T21:47:46.834Z,31.97
2019-01-21T21:50:18.350Z,32.97
2019-01-21T21:52:47.217Z,33.10
2019-01-21T21:55:16.271Z,29.27
2019-01-21T21:57:45.128Z,26.20
2019-01-21T22:02:43.451Z,32.90
2019-01-21T22:05:12.748Z,32.23
2019-01-21T22:07:41.494Z,35.63
2019-01-21T22:10:13.060Z,32.80
2019-01-21T22:12:41.978Z,25.57
2019-01-21T22:15:13.431Z,31.90
2019-01-21T22:17:42.225Z,30.63
2019-01-21T22:20:14.300Z,29.93
2019-01-21T22:22:43.160Z,30.70
2019-01-21T22:25:12.204Z,28.53
2019-01-21T22:27:40.995Z,29.57
2019-01-21T22:30:12.998Z,29.75
2019-01-21T22:32:41.865Z,29.65
2019-01-21T22:35:11.262Z,29.50
2019-01-21T22:37:40.082Z,31.07
2019-01-21T22:40:11.716Z,26.27
2019-01-21T22:42:41.407Z,26.27
2019-01-21T22:45:11.259Z,27.87
2019-01-21T22:47:40.097Z,27.63
2019-01-21T22:50:10.360Z,29.73
2019-01-21T22:52:42.073Z,34.80
2019-01-21T22:55:11.129Z,33.00
2019-01-21T22:57:40.118Z,33.10
2019-01-21T23:00:18.073Z,30.77
2019-01-21T23:02:46.868Z,32.40
2019-01-21T23:05:16.488Z,32.63
2019-01-21T23:07:45.311Z,29.63
2019-01-21T23:10:14.277Z,28.07
2019-01-21T23:12:43.095Z,29.80
2019-01-21T23:15:12.437Z,30.97
2019-01-21T23:17:42.370Z,31.33
2019-01-21T23:20:11.366Z,29.52
2019-01-21T23:22:40.162Z,28.87
2019-01-21T23:25:09.118Z,29.97
2019-01-21T23:27:38.294Z,27.85
2019-01-21T23:30:09.802Z,31.10
2019-01-21T23:32:38.586Z,31.90
2019-01-21T23:35:07.682Z,30.47
2019-01-21T23:37:36.624Z,26.93
2019-01-21T23:40:06.473Z,26.10
2019-01-21T23:42:35.414Z,27.67
2019-01-21T23:45:05.587Z,28.37
2019-01-21T23:47:34.655Z,27.20
2019-01-21T23:50:04.202Z,31.13
2019-01-21T23:52:32.992Z,32.83
2019-01-21T23:55:02.458Z,24.23
2019-01-21T23:57:31.440Z,27.93
